createdAt,value
2019-02-04T00:02:12.648Z,190.70
2019-02-04T00:06:23.585Z,205.23
2019-02-04T00:10:34.502Z,188.43
2019-02-04T00:14:45.582Z,188.87
2019-02-04T00:18:56.437Z,199.42
2019-02-04T00:23:07.395Z,196.80
2019-02-04T00:27:18.550Z,189.07
2019-02-04T00:31:29.470Z,182.53
2019-02-04T00:35:40.454Z,192.13
2019-02-04T00:39:51.478Z,195.00
2019-02-04T00:44:02.304Z,193.00
2019-02-04T00:48:13.221Z,188.80
2019-02-04T00:52:24.242Z,188.03
2019-02-04T00:56:35.119Z,192.13
2019-02-04T01:00:45.955Z,185.37
2019-02-04T01:04:56.908Z,201.13
2019-02-04T01:09:08.741Z,210.33
2019-02-04T01:13:19.695Z,204.30
2019-02-04T01:17:30.771Z,215.13
2019-02-04T01:21:41.587Z,206.10
2019-02-04T01:25:57.421Z,188.13
2019-02-04T01:30:17.151Z,187.63
2019-02-04T01:34:30.132Z,183.87
2019-02-04T01:38:41.771Z,192.17
2019-02-04T01:42:53.571Z,182.97
2019-02-04T01:47:14.164Z,185.07
2019-02-04T01:51:16.842Z,181.80
2019-02-04T01:55:27.954Z,192.87
2019-02-04T01:59:39.027Z,185.60
2019-02-04T02:03:48.857Z,180.63
2019-02-04T02:07:59.815Z,189.37
2019-02-04T02:12:10.753Z,184.43
2019-02-04T02:16:21.661Z,197.43
2019-02-04T02:20:32.574Z,194.77
2019-02-04T02:24:43.389Z,194.03
2019-02-04T02:28:54.440Z,194.17
2019-02-04T02:33:05.401Z,190.07
2019-02-04T02:37:16.255Z,200.40
2019-02-04T02:41:27.075Z,190.60
2019-02-04T02:45:37.996Z,197.00
2019-02-04T02:49:48.956Z,197.23
2019-02-04T02:53:59.815Z,193.17
2019-02-04T02:58:10.786Z,192.70
2019-02-04T03:02:21.601Z,198.10
2019-02-04T03:06:32.982Z,202.67
2019-02-04T03:10:43.909Z,190.47
2019-02-04T03:14:54.838Z,204.90
2019-02-04T03:19:05.997Z,201.10
2019-02-04T03:23:16.805Z,198.10
2019-02-04T03:27:27.690Z,209.40
2019-02-04T03:31:39.721Z,181.53
2019-02-04T03:35:50.913Z,192.10
2019-02-04T03:40:01.931Z,193.80
2019-02-04T03:44:12.886Z,199.30
2019-02-04T03:48:23.849Z,184.17
2019-02-04T03:52:34.735Z,184.73
2019-02-04T03:56:45.588Z,182.70
2019-02-04T04:00:56.549Z,184.47
2019-02-04T04:05:07.403Z,193.57
2019-02-04T04:09:18.252Z,180.03
2019-02-04T04:13:29.115Z,185.53
2019-02-04T04:17:40.033Z,178.23
2019-02-04T04:21:50.846Z,188.90
2019-02-04T04:26:01.799Z,186.30
2019-02-04T04:30:21.183Z,181.30
2019-02-04T04:34:32.683Z,178.47
2019-02-04T04:38:43.617Z,187.85
2019-02-04T04:42:54.426Z,176.83
2019-02-04T04:47:05.346Z,197.97
2019-02-04T04:51:16.149Z,176.93
2019-02-04T04:55:27.340Z,193.00
2019-02-04T04:59:38.391Z,193.47
2019-02-04T05:03:49.413Z,192.80
2019-02-04T05:08:00.325Z,187.07
2019-02-04T05:12:11.150Z,187.40
2019-02-04T05:16:22.124Z,182.73
2019-02-04T05:20:32.961Z,194.73
2019-02-04T05:24:43.786Z,185.57
2019-02-04T05:28:53.609Z,173.93
2019-02-04T05:33:04.582Z,178.67
2019-02-04T05:37:15.501Z,181.83
2019-02-04T05:41:26.388Z,178.33
2019-02-04T05:45:37.624Z,182.13
2019-02-04T05:49:48.531Z,179.37
2019-02-04T05:53:59.492Z,174.57
2019-02-04T05:58:10.405Z,192.90
2019-02-04T06:02:21.358Z,189.93
2019-02-04T06:06:32.277Z,194.80
2019-02-04T06:10:43.397Z,184.90
2019-02-04T06:14:54.310Z,191.03
2019-02-04T06:19:05.227Z,190.20
2019-02-04T06:23:16.254Z,188.30
2019-02-04T06:27:27.415Z,188.03
2019-02-04T06:31:38.524Z,187.70
2019-02-04T06:35:49.483Z,188.57
2019-02-04T06:40:00.366Z,191.50
2019-02-04T06:44:11.321Z,193.17
2019-02-04T06:48:22.524Z,195.10
2019-02-04T06:52:33.654Z,198.03
2019-02-04T06:56:44.517Z,193.80
2019-02-04T07:00:55.346Z,185.47
2019-02-04T07:05:07.934Z,198.07
2019-02-04T07:09:18.988Z,204.13
2019-02-04T07:13:29.854Z,206.83
2019-02-04T07:17:40.681Z,201.20
2019-02-04T07:21:51.617Z,201.87
2019-02-04T07:26:02.530Z,184.80
2019-02-04T07:30:16.245Z,195.47
2019-02-04T07:34:27.081Z,187.90
2019-02-04T07:38:38.037Z,184.63
2019-02-04T07:42:50.147Z,192.37
2019-02-04T07:47:01.205Z,176.53
2019-02-04T07:51:12.169Z,191.90
2019-02-04T07:55:23.023Z,196.00
2019-02-04T07:59:34.083Z,199.30
2019-02-04T08:03:45.151Z,190.57
2019-02-04T08:07:55.974Z,181.43
2019-02-04T08:12:06.830Z,191.33
2019-02-04T08:16:17.787Z,202.07
2019-02-04T08:20:28.593Z,200.30
2019-02-04T08:24:39.407Z,195.70
2019-02-04T08:28:50.617Z,208.83
2019-02-04T08:33:01.571Z,200.30
2019-02-04T08:37:12.465Z,206.10
2019-02-04T08:41:23.389Z,203.13
2019-02-04T08:45:34.227Z,206.93
2019-02-04T08:49:45.129Z,212.97
2019-02-04T08:53:56.084Z,207.40
2019-02-04T08:58:06.901Z,201.27
2019-02-04T09:02:17.958Z,203.17
2019-02-04T09:06:29.279Z,206.47
2019-02-04T09:10:40.198Z,194.47
2019-02-04T09:14:51.148Z,205.17
2019-02-04T09:19:02.153Z,210.57
2019-02-04T09:23:13.142Z,219.57
2019-02-04T09:27:23.958Z,204.27
2019-02-04T09:31:35.023Z,205.73
2019-02-04T09:35:45.841Z,199.10
2019-02-04T09:39:56.889Z,200.00
2019-02-04T09:44:08.016Z,202.73
2019-02-04T09:48:18.982Z,204.47
2019-02-04T09:52:29.906Z,208.67
2019-02-04T09:56:40.831Z,221.43
2019-02-04T10:00:51.699Z,209.53
2019-02-04T10:05:02.613Z,214.27
2019-02-04T10:09:13.565Z,216.77
2019-02-04T10:13:25.297Z,220.60
2019-02-04T10:17:36.245Z,216.27
2019-02-04T10:21:47.288Z,216.50
2019-02-04T10:25:58.132Z,229.77
2019-02-04T10:30:14.648Z,219.40
2019-02-04T10:34:25.517Z,226.13
2019-02-04T10:38:35.485Z,221.77
2019-02-04T10:42:46.339Z,232.27
2019-02-04T10:46:57.651Z,231.40
2019-02-04T10:51:08.807Z,217.20
2019-02-04T10:55:19.819Z,228.40
2019-02-04T10:59:30.154Z,220.23
2019-02-04T11:03:42.589Z,214.37
2019-02-04T11:07:53.422Z,225.90
2019-02-04T11:12:04.868Z,213.43
2019-02-04T11:16:16.204Z,223.50
2019-02-04T11:20:31.388Z,227.37
2019-02-04T11:24:42.445Z,225.00
2019-02-04T11:28:54.181Z,224.37
2019-02-04T11:33:06.616Z,221.00
2019-02-04T11:37:19.196Z,248.80
2019-02-04T11:41:30.603Z,230.93
2019-02-04T11:45:41.992Z,219.17
2019-02-04T11:49:53.099Z,221.20
2019-02-04T11:54:04.587Z,233.57
2019-02-04T11:58:14.970Z,220.77
2019-02-04T12:02:34.381Z,226.73
2019-02-04T12:06:38.736Z,229.80
2019-02-04T12:10:55.713Z,231.47
2019-02-04T12:15:09.922Z,228.43
2019-02-04T12:19:21.092Z,220.53
2019-02-04T12:23:32.117Z,223.80
2019-02-04T12:27:43.193Z,224.90
2019-02-04T12:31:54.430Z,227.40
2019-02-04T12:36:05.296Z,226.03
2019-02-04T12:40:16.890Z,227.63
2019-02-04T12:44:26.901Z,221.53
2019-02-04T12:48:37.875Z,241.10
2019-02-04T12:52:48.953Z,212.10
2019-02-04T12:56:59.782Z,216.13
2019-02-04T13:01:10.748Z,215.57
2019-02-04T13:05:24.525Z,217.13
2019-02-04T13:09:35.385Z,211.03
2019-02-04T13:13:46.351Z,213.97
2019-02-04T13:17:57.395Z,210.60
2019-02-04T13:22:08.214Z,209.73
2019-02-04T13:26:19.130Z,211.50
2019-02-04T13:30:34.073Z,209.83
2019-02-04T13:34:45.310Z,214.17
2019-02-04T13:38:57.617Z,213.03
2019-02-04T13:43:08.552Z,209.63
2019-02-04T13:47:20.615Z,204.63
2019-02-04T13:51:32.378Z,206.97
2019-02-04T13:55:43.369Z,224.87
2019-02-04T13:59:53.431Z,225.97
2019-02-04T14:04:05.484Z,208.27
2019-02-04T14:08:17.793Z,207.27
2019-02-04T14:12:30.015Z,215.87
2019-02-04T14:16:42.906Z,202.73
2019-02-04T14:20:57.957Z,206.17
2019-02-04T14:25:13.009Z,205.10
2019-02-04T14:29:25.433Z,207.47
2019-02-04T14:33:41.629Z,214.43
2019-02-04T14:37:53.904Z,207.07
2019-02-04T14:42:07.048Z,215.87
2019-02-04T14:46:23.995Z,207.57
2019-02-04T14:50:47.341Z,208.00
2019-02-04T14:55:17.144Z,231.13
2019-02-04T14:59:33.650Z,222.30
2019-02-04T15:04:02.580Z,216.07
2019-02-04T15:08:33.644Z,218.07
2019-02-04T15:13:10.045Z,209.03
2019-02-04T15:17:27.300Z,204.90
2019-02-04T15:22:04.498Z,206.40
2019-02-04T15:26:23.133Z,204.30
2019-02-04T15:30:58.445Z,214.33
2019-02-04T15:35:43.963Z,201.37
2019-02-04T15:40:23.194Z,206.03
2019-02-04T15:45:07.812Z,210.00
2019-02-04T15:50:02.507Z,210.93
2019-02-04T15:54:20.318Z,207.20
2019-02-04T15:58:36.472Z,212.90
2019-02-04T16:02:52.535Z,215.97
2019-02-04T16:07:13.277Z,205.80
2019-02-04T16:11:29.037Z,207.13
2019-02-04T16:15:46.489Z,198.37
2019-02-04T16:20:03.316Z,207.27
2019-02-04T16:24:20.314Z,212.00
2019-02-04T16:28:37.035Z,212.27
2019-02-04T16:32:53.451Z,198.97
2019-02-04T16:37:11.084Z,199.83
2019-02-04T16:41:27.859Z,206.73
2019-02-04T16:45:44.689Z,193.23
2019-02-04T16:50:03.602Z,238.97
2019-02-04T16:54:21.363Z,203.47
2019-02-04T16:58:40.638Z,209.47
2019-02-04T17:02:58.575Z,194.87
2019-02-04T17:07:17.486Z,207.13
2019-02-04T17:11:35.810Z,212.57
2019-02-04T17:15:53.782Z,207.07
2019-02-04T17:20:21.656Z,204.13
2019-02-04T17:24:39.294Z,206.20
2019-02-04T17:28:57.016Z,194.70
2019-02-04T17:33:14.449Z,201.97
2019-02-04T17:37:31.213Z,199.87
2019-02-04T17:41:51.639Z,193.33
2019-02-04T17:46:08.806Z,198.17
2019-02-04T17:50:27.914Z,198.30
2019-02-04T17:54:45.050Z,194.07
2019-02-04T17:59:02.044Z,196.17
2019-02-04T18:03:21.072Z,199.33
2019-02-04T18:07:38.253Z,198.93
2019-02-04T18:11:56.882Z,191.67
2019-02-04T18:16:16.774Z,204.68
2019-02-04T18:20:36.137Z,206.37
2019-02-04T18:24:54.878Z,200.57
2019-02-04T18:29:14.341Z,200.87
2019-02-04T18:33:34.261Z,191.47
2019-02-04T18:37:52.773Z,193.07
2019-02-04T18:42:10.101Z,196.37
2019-02-04T18:46:30.563Z,192.30
2019-02-04T18:50:48.260Z,193.87
2019-02-04T18:55:06.202Z,189.17
2019-02-04T18:59:28.110Z,197.90
2019-02-04T19:03:47.559Z,189.73
2019-02-04T19:08:04.906Z,196.57
2019-02-04T19:12:23.979Z,192.90
2019-02-04T19:16:45.752Z,193.73
2019-02-04T19:21:03.069Z,194.37
2019-02-04T19:25:23.677Z,191.03
2019-02-04T19:29:51.700Z,185.33
2019-02-04T19:34:10.844Z,192.87
2019-02-04T19:38:30.362Z,198.47
2019-02-04T19:42:49.147Z,187.23
2019-02-04T19:47:07.527Z,201.17
2019-02-04T19:51:26.784Z,190.73
2019-02-04T19:55:45.280Z,196.13
2019-02-04T20:00:03.776Z,190.27
2019-02-04T20:04:25.972Z,186.80
2019-02-04T20:08:43.654Z,198.20
2019-02-04T20:13:02.768Z,192.27
2019-02-04T20:17:21.403Z,192.97
2019-02-04T20:21:41.210Z,191.27
2019-02-04T20:25:58.918Z,202.00
2019-02-04T20:30:18.610Z,191.00
2019-02-04T20:34:37.269Z,200.97
2019-02-04T20:38:56.974Z,193.77
2019-02-04T20:43:15.202Z,197.57
2019-02-04T20:47:33.216Z,184.30
2019-02-04T20:51:50.770Z,198.20
2019-02-04T20:56:09.009Z,191.47
2019-02-04T21:00:30.557Z,194.50
2019-02-04T21:04:47.528Z,193.63
2019-02-04T21:09:10.918Z,194.53
2019-02-04T21:13:29.639Z,190.67
2019-02-04T21:17:46.953Z,184.80
2019-02-04T21:22:04.139Z,188.90
2019-02-04T21:26:22.293Z,186.77
2019-02-04T21:30:38.892Z,215.00
2019-02-04T21:34:49.972Z,182.90
2019-02-04T21:39:04.829Z,190.30
2019-02-04T21:43:15.255Z,189.07
2019-02-04T21:47:29.588Z,185.57
2019-02-04T21:51:40.745Z,188.60
2019-02-04T21:55:52.919Z,187.67
2019-02-04T22:00:05.221Z,190.47
2019-02-04T22:04:16.272Z,186.50
2019-02-04T22:08:27.367Z,194.83
2019-02-04T22:12:38.534Z,190.63
2019-02-04T22:16:49.455Z,195.17
2019-02-04T22:21:00.504Z,182.73
2019-02-04T22:25:19.590Z,195.10
2019-02-04T22:29:25.557Z,189.77
2019-02-04T22:33:36.459Z,186.63
2019-02-04T22:37:47.280Z,192.40
2019-02-04T22:42:00.342Z,190.73
2019-02-04T22:46:11.145Z,191.73
2019-02-04T22:50:23.700Z,196.40
2019-02-04T22:54:34.531Z,194.07
2019-02-04T22:58:45.402Z,199.20
2019-02-04T23:02:56.255Z,190.90
2019-02-04T23:07:07.059Z,196.63
2019-02-04T23:11:18.033Z,194.80
2019-02-04T23:15:28.846Z,191.33
2019-02-04T23:19:39.809Z,192.87
2019-02-04T23:23:50.689Z,189.17
2019-02-04T23:28:01.707Z,189.53
2019-02-04T23:32:12.570Z,187.30
2019-02-04T23:36:23.568Z,180.67
2019-02-04T23:40:33.415Z,196.10
2019-02-04T23:44:44.358Z,187.60
2019-02-04T23:48:55.208Z,190.37
2019-02-04T23:53:06.328Z,189.87
2019-02-04T23:57:17.180Z,189.37
